createdAt,value
2023-02-06T00:01:43.954Z,1.90
2023-02-06T00:04:12.679Z,1.90
2023-02-06T00:06:41.031Z,1.91
2023-02-06T00:09:09.592Z,1.86
2023-02-06T00:11:38.194Z,1.89
2023-02-06T00:14:07.011Z,1.89
2023-02-06T00:16:36.792Z,1.85
2023-02-06T00:19:06.797Z,1.87
2023-02-06T00:21:35.457Z,1.86
2023-02-06T00:24:04.143Z,1.85
2023-02-06T00:26:32.763Z,1.87
2023-02-06T00:29:01.191Z,1.86
2023-02-06T00:31:29.540Z,1.88
2023-02-06T00:33:57.974Z,1.89
2023-02-06T00:36:28.604Z,1.87
2023-02-06T00:38:56.932Z,1.91
2023-02-06T00:41:25.408Z,1.89
2023-02-06T00:43:53.694Z,1.89
2023-02-06T00:46:22.140Z,1.90
2023-02-06T00:48:52.435Z,1.89
2023-02-06T00:51:20.981Z,1.88
2023-02-06T00:53:51.297Z,1.88
2023-02-06T00:56:21.230Z,1.87
2023-02-06T00:58:49.664Z,1.87
2023-02-06T01:01:18.296Z,1.89
2023-02-06T01:03:47.126Z,1.86
2023-02-06T01:06:15.512Z,1.85
2023-02-06T01:08:43.957Z,1.86
2023-02-06T01:11:16.041Z,1.85
2023-02-06T01:13:44.777Z,1.84
2023-02-06T01:16:15.977Z,1.85
2023-02-06T01:18:44.451Z,1.83
2023-02-06T01:21:15.049Z,1.85
2023-02-06T01:23:44.493Z,1.85
2023-02-06T01:26:17.367Z,1.84
2023-02-06T01:28:48.526Z,1.85
2023-02-06T01:31:20.282Z,1.84
2023-02-06T01:33:50.705Z,1.84
2023-02-06T01:36:20.955Z,1.82
2023-02-06T01:38:50.292Z,1.81
2023-02-06T01:41:22.376Z,1.81
2023-02-06T01:44:12.750Z,1.81
2023-02-06T01:46:43.110Z,1.79
2023-02-06T01:49:17.451Z,1.80
2023-02-06T01:51:46.823Z,1.80
2023-02-06T01:54:16.406Z,1.79
2023-02-06T01:56:50.894Z,1.79
2023-02-06T01:59:19.438Z,1.80
2023-02-06T02:01:48.211Z,1.82
2023-02-06T02:04:20.308Z,1.81
2023-02-06T02:06:55.848Z,1.77
2023-02-06T02:09:24.384Z,1.78
2023-02-06T02:11:54.272Z,1.78
2023-02-06T02:14:22.733Z,1.77
2023-02-06T02:17:04.915Z,1.75
2023-02-06T02:20:16.430Z,1.72
2023-02-06T02:22:58.223Z,1.73
2023-02-06T02:26:38.042Z,1.70
2023-02-06T02:29:47.047Z,1.68
2023-02-06T02:32:52.068Z,1.69
2023-02-06T02:35:35.425Z,1.69
2023-02-06T02:38:19.336Z,1.70
2023-02-06T02:40:56.188Z,1.69
2023-02-06T02:43:35.710Z,1.66
2023-02-06T02:46:13.829Z,1.68
2023-02-06T02:48:46.627Z,1.67
2023-02-06T02:51:16.654Z,1.69
2023-02-06T02:53:45.208Z,1.66
2023-02-06T02:56:18.817Z,1.64
2023-02-06T02:58:51.842Z,1.66
2023-02-06T03:01:26.108Z,1.67
2023-02-06T03:03:56.569Z,1.64
2023-02-06T03:06:44.764Z,1.63
2023-02-06T03:09:23.853Z,1.62
2023-02-06T03:12:01.883Z,1.62
2023-02-06T03:14:36.026Z,1.63
2023-02-06T03:17:10.000Z,1.63
2023-02-06T03:19:45.254Z,1.63
2023-02-06T03:22:15.831Z,1.59
2023-02-06T03:24:44.362Z,1.62
2023-02-06T03:27:16.196Z,1.63
2023-02-06T03:29:46.276Z,1.62
2023-02-06T03:32:19.682Z,1.64
2023-02-06T03:34:56.633Z,1.63
2023-02-06T03:37:27.752Z,1.64
2023-02-06T03:39:59.105Z,1.60
2023-02-06T03:42:27.832Z,1.59
2023-02-06T03:45:01.237Z,1.58
2023-02-06T03:47:31.329Z,1.60
2023-02-06T03:50:02.664Z,1.60
2023-02-06T03:52:39.638Z,1.56
2023-02-06T03:55:12.577Z,1.56
2023-02-06T03:57:43.416Z,1.55
2023-02-06T04:00:13.980Z,1.56
2023-02-06T04:02:43.481Z,1.55
2023-02-06T04:05:11.743Z,1.54
2023-02-06T04:07:41.564Z,1.51
2023-02-06T04:10:10.358Z,1.51
2023-02-06T04:12:39.299Z,1.52
2023-02-06T04:15:08.539Z,1.48
2023-02-06T04:17:53.721Z,1.48
2023-02-06T04:20:25.612Z,1.48
2023-02-06T04:22:55.511Z,1.46
2023-02-06T04:25:23.912Z,1.46
2023-02-06T04:27:52.333Z,1.48
2023-02-06T04:30:20.738Z,1.43
2023-02-06T04:32:49.006Z,1.45
2023-02-06T04:35:17.524Z,1.45
2023-02-06T04:37:45.768Z,1.46
2023-02-06T04:40:18.223Z,1.45
2023-02-06T04:42:46.640Z,1.45
2023-02-06T04:45:15.061Z,1.47
2023-02-06T04:47:43.541Z,1.46
2023-02-06T04:50:12.283Z,1.46
2023-02-06T04:52:40.561Z,1.46
2023-02-06T04:55:09.914Z,1.45
2023-02-06T04:57:39.768Z,1.42
2023-02-06T05:00:10.356Z,1.42
2023-02-06T05:02:39.824Z,1.42
2023-02-06T05:05:10.337Z,1.40
2023-02-06T05:07:38.629Z,1.41
2023-02-06T05:10:08.887Z,1.43
2023-02-06T05:12:39.055Z,1.46
2023-02-06T05:15:08.809Z,1.49
2023-02-06T05:17:37.123Z,1.45
2023-02-06T05:20:06.825Z,1.46
2023-02-06T05:22:35.251Z,1.45
2023-02-06T05:25:03.994Z,1.49
2023-02-06T05:27:32.255Z,1.49
2023-02-06T05:30:02.222Z,1.48
2023-02-06T05:32:30.437Z,1.44
2023-02-06T05:34:58.760Z,1.44
2023-02-06T05:37:27.108Z,1.48
2023-02-06T05:39:55.322Z,1.49
2023-02-06T05:42:23.578Z,1.45
2023-02-06T05:44:51.856Z,1.47
2023-02-06T05:47:21.473Z,1.47
2023-02-06T05:49:49.846Z,1.48
2023-02-06T05:52:18.241Z,1.46
2023-02-06T05:54:46.583Z,1.46
2023-02-06T05:57:14.964Z,1.46
2023-02-06T05:59:43.204Z,1.44
2023-02-06T06:02:11.861Z,1.49
2023-02-06T06:04:41.636Z,1.45
2023-02-06T06:07:10.668Z,1.41
2023-02-06T06:09:38.998Z,1.43
2023-02-06T06:12:08.003Z,1.46
2023-02-06T06:14:36.589Z,1.43
2023-02-06T06:17:05.222Z,1.44
2023-02-06T06:19:33.681Z,1.41
2023-02-06T06:22:03.511Z,1.38
2023-02-06T06:24:31.854Z,1.37
2023-02-06T06:27:00.224Z,1.37
2023-02-06T06:29:28.584Z,1.38
2023-02-06T06:31:57.253Z,1.35
2023-02-06T06:34:27.379Z,1.36
2023-02-06T06:36:55.728Z,1.41
2023-02-06T06:39:25.663Z,1.40
2023-02-06T06:41:53.961Z,1.41
2023-02-06T06:44:22.639Z,1.39
2023-02-06T06:46:51.136Z,1.41
2023-02-06T06:49:19.727Z,1.40
2023-02-06T06:51:47.982Z,1.36
2023-02-06T06:54:16.760Z,1.45
2023-02-06T06:56:46.364Z,1.41
2023-02-06T06:59:14.587Z,1.37
2023-02-06T07:01:42.864Z,1.37
2023-02-06T07:04:11.194Z,1.34
2023-02-06T07:06:39.538Z,1.32
2023-02-06T07:09:07.815Z,1.31
2023-02-06T07:14:06.956Z,1.32
2023-02-06T07:16:35.246Z,1.27
2023-02-06T07:19:03.766Z,1.26
2023-02-06T07:21:32.092Z,1.27
2023-02-06T07:24:00.701Z,1.25
2023-02-06T07:26:29.068Z,1.25
2023-02-06T07:28:58.572Z,1.25
2023-02-06T07:31:28.259Z,1.26
2023-02-06T07:33:56.545Z,1.26
2023-02-06T07:36:24.807Z,1.26
2023-02-06T07:38:53.199Z,1.27
2023-02-06T07:41:21.437Z,1.32
2023-02-06T07:43:49.799Z,1.32
2023-02-06T07:46:18.208Z,1.34
2023-02-06T07:48:47.986Z,1.35
2023-02-06T07:51:16.238Z,1.31
2023-02-06T07:53:44.551Z,1.33
2023-02-06T07:56:15.724Z,1.33
2023-02-06T07:58:44.426Z,1.34
2023-02-06T08:01:12.736Z,1.37
2023-02-06T08:03:41.061Z,1.38
2023-02-06T08:06:13.029Z,1.41
2023-02-06T08:08:41.749Z,1.41
2023-02-06T08:11:12.479Z,1.42
2023-02-06T08:13:40.958Z,1.46
2023-02-06T08:16:13.206Z,1.44
2023-02-06T08:18:42.009Z,1.41
2023-02-06T08:21:15.072Z,1.43
2023-02-06T08:23:44.483Z,1.43
2023-02-06T08:26:16.656Z,1.41
2023-02-06T08:28:47.551Z,1.45
2023-02-06T08:31:20.050Z,1.44
2023-02-06T08:33:49.001Z,1.49
2023-02-06T08:36:20.688Z,1.52
2023-02-06T08:38:49.547Z,1.56
2023-02-06T08:41:20.651Z,1.49
2023-02-06T08:43:50.699Z,1.48
2023-02-06T08:46:21.905Z,1.52
2023-02-06T08:48:55.228Z,1.54
2023-02-06T08:51:27.810Z,1.55
2023-02-06T08:53:58.301Z,1.61
2023-02-06T08:56:28.269Z,1.67
2023-02-06T08:58:59.501Z,1.71
2023-02-06T09:01:30.178Z,1.72
2023-02-06T09:04:00.806Z,1.72
2023-02-06T09:06:31.852Z,1.67
2023-02-06T09:09:00.464Z,1.70
2023-02-06T09:11:29.990Z,1.69
2023-02-06T09:14:01.000Z,1.73
2023-02-06T09:16:33.121Z,1.73
2023-02-06T09:19:02.757Z,1.66
2023-02-06T09:21:34.602Z,1.64
2023-02-06T09:24:05.336Z,1.63
2023-02-06T09:26:40.575Z,1.58
2023-02-06T09:29:13.698Z,1.65
2023-02-06T09:31:43.640Z,1.62
2023-02-06T09:34:14.415Z,1.67
2023-02-06T09:36:44.155Z,1.70
2023-02-06T09:39:12.433Z,1.65
2023-02-06T09:41:47.130Z,1.68
2023-02-06T09:44:21.185Z,1.71
2023-02-06T09:46:54.360Z,1.74
2023-02-06T09:49:27.166Z,1.71
2023-02-06T09:52:19.502Z,1.74
2023-02-06T09:55:00.415Z,1.73
2023-02-06T09:57:42.016Z,1.76
2023-02-06T10:00:29.589Z,1.73
2023-02-06T10:03:29.594Z,1.77
2023-02-06T10:06:12.671Z,1.82
2023-02-06T10:08:50.383Z,1.85
2023-02-06T10:11:25.730Z,1.80
2023-02-06T10:13:59.491Z,1.79
2023-02-06T10:16:39.521Z,1.85
2023-02-06T10:19:22.840Z,1.92
2023-02-06T10:21:57.118Z,1.91
2023-02-06T10:24:38.193Z,1.94
2023-02-06T10:27:13.831Z,1.97
2023-02-06T10:29:44.322Z,1.96
2023-02-06T10:32:38.473Z,1.87
2023-02-06T10:35:29.631Z,1.95
2023-02-06T10:38:28.468Z,2.00
2023-02-06T10:41:05.615Z,2.04
2023-02-06T10:43:44.776Z,2.10
2023-02-06T10:46:39.678Z,2.12
2023-02-06T10:49:18.622Z,2.18
2023-02-06T10:51:52.743Z,2.13
2023-02-06T10:54:25.694Z,2.10
2023-02-06T10:56:58.581Z,2.17
2023-02-06T10:59:31.315Z,2.14
2023-02-06T11:02:19.901Z,2.14
2023-02-06T11:04:55.334Z,2.13
2023-02-06T11:07:31.556Z,2.12
2023-02-06T11:10:00.709Z,2.13
2023-02-06T11:12:37.148Z,2.15
2023-02-06T11:15:19.439Z,2.14
2023-02-06T11:17:47.947Z,2.14
2023-02-06T11:20:23.209Z,2.14
2023-02-06T11:22:53.543Z,2.13
2023-02-06T11:25:28.657Z,2.15
2023-02-06T11:27:59.623Z,2.11
2023-02-06T11:30:35.653Z,2.15
2023-02-06T11:33:08.654Z,2.18
2023-02-06T11:35:41.983Z,2.18
2023-02-06T11:38:18.145Z,2.17
2023-02-06T11:40:57.391Z,2.21
2023-02-06T11:43:29.195Z,2.20
2023-02-06T11:46:17.046Z,2.20
2023-02-06T11:48:47.328Z,2.23
2023-02-06T11:51:17.880Z,2.29
2023-02-06T11:53:58.539Z,2.31
2023-02-06T11:56:28.582Z,2.28
2023-02-06T11:59:08.732Z,2.31
2023-02-06T12:01:45.301Z,2.33
2023-02-06T12:04:23.858Z,2.31
2023-02-06T12:06:58.421Z,2.29
2023-02-06T12:09:27.032Z,2.27
2023-02-06T12:12:02.278Z,2.29
2023-02-06T12:14:38.763Z,2.28
2023-02-06T12:17:24.646Z,2.29
2023-02-06T12:20:01.865Z,2.26
2023-02-06T12:22:37.331Z,2.29
2023-02-06T12:25:07.057Z,2.28
2023-02-06T12:27:39.873Z,2.24
2023-02-06T12:30:31.560Z,2.28
2023-02-06T12:33:09.697Z,2.35
2023-02-06T12:35:46.400Z,2.33
2023-02-06T12:38:25.406Z,2.31
2023-02-06T12:41:08.004Z,2.29
2023-02-06T12:43:38.936Z,2.30
2023-02-06T12:46:18.109Z,2.30
2023-02-06T12:48:53.269Z,2.28
2023-02-06T12:51:28.253Z,2.23
2023-02-06T12:54:00.529Z,2.31
2023-02-06T12:56:32.966Z,2.32
2023-02-06T12:59:26.014Z,2.31
2023-02-06T13:02:02.097Z,2.29
2023-02-06T13:04:34.136Z,2.36
2023-02-06T13:07:09.292Z,2.36
2023-02-06T13:09:42.317Z,2.45
2023-02-06T13:12:20.754Z,2.41
2023-02-06T13:14:52.429Z,2.38
2023-02-06T13:17:25.378Z,2.36
2023-02-06T13:20:06.952Z,2.34
2023-02-06T13:22:45.783Z,2.29
2023-02-06T13:25:50.888Z,2.36
2023-02-06T13:28:58.064Z,2.37
2023-02-06T13:31:33.768Z,2.44
2023-02-06T13:34:09.600Z,2.51
2023-02-06T13:36:53.874Z,2.60
2023-02-06T13:39:33.403Z,2.69
2023-02-06T13:42:35.705Z,2.69
2023-02-06T13:45:07.093Z,2.75
2023-02-06T13:48:47.380Z,2.71
2023-02-06T13:51:48.518Z,2.74
2023-02-06T13:54:43.726Z,2.78
2023-02-06T13:57:29.813Z,2.78
2023-02-06T14:00:03.771Z,2.83
2023-02-06T14:02:39.319Z,2.90
2023-02-06T14:05:12.810Z,2.85
2023-02-06T14:08:08.430Z,2.81
2023-02-06T14:11:23.487Z,2.81
2023-02-06T14:14:28.296Z,2.83
2023-02-06T14:17:08.593Z,2.74
2023-02-06T14:19:46.582Z,2.69
2023-02-06T14:22:37.638Z,2.66
2023-02-06T14:25:39.647Z,2.68
2023-02-06T14:28:21.561Z,2.68
2023-02-06T14:31:01.667Z,2.74
2023-02-06T14:33:53.438Z,2.71
2023-02-06T14:36:40.247Z,2.69
2023-02-06T14:39:48.172Z,2.68
2023-02-06T14:42:23.646Z,2.69
2023-02-06T14:45:01.815Z,2.65
2023-02-06T14:47:33.974Z,2.65
2023-02-06T14:50:02.945Z,2.65
2023-02-06T14:52:34.354Z,2.66
2023-02-06T14:55:02.995Z,2.64
2023-02-06T14:57:34.489Z,2.62
2023-02-06T15:00:08.931Z,2.62
2023-02-06T15:02:40.064Z,2.60
2023-02-06T15:05:26.442Z,2.60
2023-02-06T15:07:59.692Z,2.55
2023-02-06T15:10:31.235Z,2.58
2023-02-06T15:13:01.132Z,2.58
2023-02-06T15:15:31.833Z,2.57
2023-02-06T15:18:04.184Z,2.60
2023-02-06T15:20:37.324Z,2.56
2023-02-06T15:23:17.698Z,2.59
2023-02-06T15:26:06.898Z,2.56
2023-02-06T15:28:38.184Z,2.55
2023-02-06T15:31:18.109Z,2.53
2023-02-06T15:33:50.917Z,2.53
2023-02-06T15:36:25.501Z,2.57
2023-02-06T15:38:54.145Z,2.60
2023-02-06T15:41:23.086Z,2.61
2023-02-06T15:44:02.805Z,2.57
2023-02-06T15:46:31.985Z,2.60
2023-02-06T15:49:00.790Z,2.55
2023-02-06T15:51:31.501Z,2.50
2023-02-06T15:54:19.394Z,2.48
2023-02-06T15:56:53.047Z,2.48
2023-02-06T15:59:25.924Z,2.46
2023-02-06T16:01:57.127Z,2.43
2023-02-06T16:04:30.820Z,2.46
2023-02-06T16:07:07.102Z,2.47
2023-02-06T16:09:42.364Z,2.46
2023-02-06T16:12:11.266Z,2.42
2023-02-06T16:14:51.783Z,2.39
2023-02-06T16:17:35.667Z,2.38
2023-02-06T16:20:08.100Z,2.36
2023-02-06T16:22:39.940Z,2.35
2023-02-06T16:25:22.937Z,2.32
2023-02-06T16:27:52.145Z,2.34
2023-02-06T16:30:29.110Z,2.33
2023-02-06T16:33:00.831Z,2.33
2023-02-06T16:35:30.254Z,2.32
2023-02-06T16:37:58.548Z,2.31
2023-02-06T16:40:27.103Z,2.31
2023-02-06T16:42:55.518Z,2.30
2023-02-06T16:45:29.016Z,2.30
2023-02-06T16:47:57.777Z,2.27
2023-02-06T16:50:26.121Z,2.29
2023-02-06T16:52:59.045Z,2.30
2023-02-06T16:55:28.840Z,2.29
2023-02-06T16:58:00.787Z,2.26
2023-02-06T17:00:33.050Z,2.28
2023-02-06T17:03:01.623Z,2.26
2023-02-06T17:05:31.684Z,2.22
2023-02-06T17:08:01.569Z,2.24
2023-02-06T17:10:30.050Z,2.22
2023-02-06T17:12:58.622Z,2.23
2023-02-06T17:15:27.524Z,2.20
2023-02-06T17:17:57.741Z,2.22
2023-02-06T17:20:34.184Z,2.20
2023-02-06T17:23:03.306Z,2.18
2023-02-06T17:25:32.660Z,2.14
2023-02-06T17:28:02.864Z,2.14
2023-02-06T17:30:31.807Z,2.14
2023-02-06T17:33:02.442Z,2.13
2023-02-06T17:35:34.358Z,2.11
2023-02-06T17:38:03.483Z,2.11
2023-02-06T17:40:35.545Z,2.11
2023-02-06T17:43:05.770Z,2.11
2023-02-06T17:45:35.582Z,2.07
2023-02-06T17:48:05.878Z,2.09
2023-02-06T17:50:36.813Z,2.07
2023-02-06T17:53:07.067Z,2.07
2023-02-06T17:55:36.812Z,2.11
2023-02-06T17:58:05.698Z,2.07
2023-02-06T18:00:34.350Z,2.03
2023-02-06T18:03:05.003Z,2.01
2023-02-06T18:05:34.938Z,2.03
2023-02-06T18:08:03.316Z,2.00
2023-02-06T18:10:31.885Z,1.99
2023-02-06T18:13:00.201Z,2.00
2023-02-06T18:15:30.400Z,2.02
2023-02-06T18:18:00.183Z,2.00
2023-02-06T18:20:28.460Z,1.94
2023-02-06T18:22:58.249Z,1.91
2023-02-06T18:25:26.592Z,1.89
2023-02-06T18:27:54.880Z,1.90
2023-02-06T18:30:23.689Z,1.90
2023-02-06T18:32:52.191Z,1.92
2023-02-06T18:35:20.729Z,1.85
2023-02-06T18:37:50.140Z,1.85
2023-02-06T18:40:20.110Z,1.85
2023-02-06T18:42:54.870Z,1.84
2023-02-06T18:45:26.432Z,1.82
2023-02-06T18:47:55.577Z,1.84
2023-02-06T18:50:24.134Z,1.86
2023-02-06T18:52:52.687Z,1.85
2023-02-06T18:55:22.714Z,1.87
2023-02-06T18:57:51.251Z,1.86
2023-02-06T19:00:22.966Z,1.88
2023-02-06T19:02:51.658Z,1.90
2023-02-06T19:05:21.065Z,1.84
2023-02-06T19:07:52.213Z,1.91
2023-02-06T19:10:23.050Z,1.88
2023-02-06T19:12:51.418Z,1.87
2023-02-06T19:15:20.403Z,1.84
2023-02-06T19:17:50.177Z,1.81
2023-02-06T19:20:19.265Z,1.74
2023-02-06T19:22:47.570Z,1.73
2023-02-06T19:25:16.113Z,1.72
2023-02-06T19:27:45.790Z,1.78
2023-02-06T19:30:14.541Z,1.78
2023-02-06T19:32:43.448Z,1.75
2023-02-06T19:35:12.112Z,1.74
2023-02-06T19:37:40.771Z,1.65
2023-02-06T19:40:09.862Z,1.67
2023-02-06T19:42:39.610Z,1.59
2023-02-06T19:45:09.641Z,1.63
2023-02-06T19:47:37.909Z,1.64
2023-02-06T19:50:07.233Z,1.63
2023-02-06T19:52:35.608Z,1.58
2023-02-06T19:55:04.328Z,1.58
2023-02-06T19:57:32.870Z,1.55
2023-02-06T20:00:01.194Z,1.56
2023-02-06T20:02:30.976Z,1.51
2023-02-06T20:05:01.571Z,1.47
2023-02-06T20:07:31.840Z,1.50
2023-02-06T20:10:00.224Z,1.42
2023-02-06T20:12:29.200Z,1.42
2023-02-06T20:14:57.595Z,1.38
2023-02-06T20:17:26.957Z,1.29
2023-02-06T20:19:59.847Z,1.33
2023-02-06T20:22:28.135Z,1.34
2023-02-06T20:24:56.593Z,1.31
2023-02-06T20:27:24.838Z,1.31
2023-02-06T20:29:53.944Z,1.21
2023-02-06T20:32:22.877Z,1.18
2023-02-06T20:34:51.771Z,1.26
2023-02-06T20:37:25.037Z,1.19
2023-02-06T20:39:53.940Z,1.18
2023-02-06T20:42:30.074Z,1.19
2023-02-06T20:44:59.509Z,1.27
2023-02-06T20:47:28.366Z,1.28
2023-02-06T20:50:00.365Z,1.25
2023-02-06T20:52:30.587Z,1.25
2023-02-06T20:54:58.988Z,1.20
2023-02-06T20:57:28.146Z,1.13
2023-02-06T20:59:56.406Z,1.12
2023-02-06T21:02:24.906Z,1.14
2023-02-06T21:04:53.284Z,1.09
2023-02-06T21:07:21.639Z,1.06
2023-02-06T21:09:51.729Z,1.02
2023-02-06T21:12:20.214Z,0.97
2023-02-06T21:14:48.560Z,0.98
2023-02-06T21:17:16.902Z,0.98
2023-02-06T21:19:45.267Z,0.92
2023-02-06T21:22:13.661Z,0.89
2023-02-06T21:24:41.996Z,0.83
2023-02-06T21:27:12.086Z,0.81
2023-02-06T21:29:40.453Z,0.78
2023-02-06T21:32:14.063Z,0.79
2023-02-06T21:34:43.729Z,0.80
2023-02-06T21:37:12.190Z,0.81
2023-02-06T21:39:41.060Z,0.83
2023-02-06T21:42:11.604Z,0.81
2023-02-06T21:44:39.835Z,0.77
2023-02-06T21:47:09.819Z,0.78
2023-02-06T21:49:38.334Z,0.77
2023-02-06T21:52:06.601Z,0.72
2023-02-06T21:54:34.898Z,0.73
2023-02-06T21:57:03.390Z,0.70
2023-02-06T21:59:34.165Z,0.75
2023-02-06T22:02:02.591Z,0.78
2023-02-06T22:04:30.903Z,0.81
2023-02-06T22:06:59.334Z,0.80
2023-02-06T22:09:27.669Z,0.80
2023-02-06T22:11:56.748Z,0.83
2023-02-06T22:14:25.257Z,0.83
2023-02-06T22:16:55.006Z,0.86
2023-02-06T22:19:23.306Z,0.85
2023-02-06T22:21:51.678Z,0.80
2023-02-06T22:24:20.628Z,0.81
2023-02-06T22:26:49.012Z,0.84
2023-02-06T22:29:18.869Z,0.79
2023-02-06T22:31:48.413Z,0.79
2023-02-06T22:34:21.294Z,0.77
2023-02-06T22:36:51.192Z,0.81
2023-02-06T22:39:19.608Z,0.84
2023-02-06T22:41:48.893Z,0.80
2023-02-06T22:44:18.594Z,0.83
2023-02-06T22:46:49.861Z,0.81
2023-02-06T22:49:20.771Z,0.78
2023-02-06T22:51:49.405Z,0.80
2023-02-06T22:54:18.133Z,0.80
2023-02-06T22:56:47.040Z,0.71
2023-02-06T22:59:19.141Z,0.75
2023-02-06T23:01:49.720Z,0.79
2023-02-06T23:04:23.010Z,0.76
2023-02-06T23:06:52.920Z,0.72
2023-02-06T23:09:24.149Z,0.72
2023-02-06T23:11:54.053Z,0.65
2023-02-06T23:14:22.674Z,0.63
2023-02-06T23:16:51.590Z,0.67
2023-02-06T23:19:22.007Z,0.66
2023-02-06T23:21:52.221Z,0.67
2023-02-06T23:24:21.287Z,0.67
2023-02-06T23:26:53.153Z,0.64
2023-02-06T23:29:23.869Z,0.61
2023-02-06T23:31:52.698Z,0.63
2023-02-06T23:34:24.492Z,0.52
2023-02-06T23:36:53.931Z,0.45
2023-02-06T23:39:22.792Z,0.45
2023-02-06T23:41:51.254Z,0.41
2023-02-06T23:44:20.086Z,0.36
2023-02-06T23:46:48.717Z,0.28
2023-02-06T23:49:17.070Z,0.19
2023-02-06T23:51:47.109Z,0.18
2023-02-06T23:54:15.513Z,0.09
2023-02-06T23:56:44.160Z,0.02
2023-02-06T23:59:12.896Z,0.09
